createdAt,value
2018-12-11T00:00:43.037Z,11.33
2018-12-11T00:03:10.444Z,11.60
2018-12-11T00:05:37.839Z,10.45
2018-12-11T00:08:05.280Z,10.60
2018-12-11T00:10:32.672Z,9.98
2018-12-11T00:13:00.065Z,9.58
2018-12-11T00:15:27.459Z,9.68
2018-12-11T00:17:54.846Z,9.83
2018-12-11T00:20:22.308Z,9.95
2018-12-11T00:22:49.697Z,10.30
2018-12-11T00:25:17.092Z,9.93
2018-12-11T00:27:44.604Z,9.00
2018-12-11T00:30:12.009Z,11.10
2018-12-11T00:32:39.783Z,10.25
2018-12-11T00:35:08.080Z,9.60
2018-12-11T00:37:35.543Z,9.05
2018-12-11T00:40:02.996Z,9.43
2018-12-11T00:42:30.459Z,8.75
2018-12-11T00:44:57.877Z,8.58
2018-12-11T00:47:25.277Z,9.08
2018-12-11T00:49:52.672Z,8.25
2018-12-11T00:52:20.081Z,8.70
2018-12-11T00:54:47.504Z,7.80
2018-12-11T00:57:14.901Z,7.42
2018-12-11T00:59:42.309Z,6.92
2018-12-11T01:02:09.704Z,6.83
2018-12-11T01:04:37.246Z,7.17
2018-12-11T01:07:04.704Z,7.00
2018-12-11T01:09:32.120Z,6.33
2018-12-11T01:11:59.500Z,6.55
2018-12-11T01:14:26.888Z,5.55
2018-12-11T01:16:54.284Z,6.25
2018-12-11T01:19:21.780Z,6.00
2018-12-11T01:21:49.215Z,5.90
2018-12-11T01:24:16.625Z,6.08
2018-12-11T01:26:44.067Z,6.25
2018-12-11T01:29:11.516Z,6.40
2018-12-11T01:31:38.907Z,6.25
2018-12-11T01:34:11.049Z,6.10
2018-12-11T01:36:38.701Z,5.75
2018-12-11T01:39:12.605Z,5.95
2018-12-11T01:41:40.081Z,6.75
2018-12-11T01:44:07.512Z,5.85
2018-12-11T01:46:34.952Z,6.55
2018-12-11T01:49:02.362Z,6.05
2018-12-11T01:51:29.756Z,5.65
2018-12-11T01:53:57.157Z,5.72
2018-12-11T01:56:24.612Z,5.58
2018-12-11T01:58:52.119Z,6.10
2018-12-11T02:01:24.491Z,5.60
2018-12-11T02:03:52.000Z,5.45
2018-12-11T02:06:19.444Z,5.90
2018-12-11T02:08:47.006Z,5.30
2018-12-11T02:11:14.400Z,5.92
2018-12-11T02:13:41.842Z,5.55
2018-12-11T02:16:09.665Z,6.12
2018-12-11T02:18:37.056Z,5.95
2018-12-11T02:21:04.550Z,5.67
2018-12-11T02:23:32.037Z,6.15
2018-12-11T02:25:59.583Z,5.47
2018-12-11T02:28:26.979Z,6.12
2018-12-11T02:30:54.418Z,6.00
2018-12-11T02:33:21.814Z,6.50
2018-12-11T02:35:49.272Z,6.28
2018-12-11T02:38:16.673Z,5.70
2018-12-11T02:40:44.090Z,5.95
2018-12-11T02:43:11.485Z,5.37
2018-12-11T02:45:38.883Z,5.67
2018-12-11T02:48:06.281Z,4.92
2018-12-11T02:50:33.680Z,6.37
2018-12-11T02:53:01.093Z,5.40
2018-12-11T02:55:28.487Z,5.70
2018-12-11T02:57:56.008Z,5.42
2018-12-11T03:00:23.413Z,5.85
2018-12-11T03:02:50.817Z,5.40
2018-12-11T03:05:18.229Z,5.25
2018-12-11T03:07:45.625Z,5.92
2018-12-11T03:10:13.105Z,5.97
2018-12-11T03:12:40.513Z,5.53
2018-12-11T03:15:07.952Z,5.10
2018-12-11T03:17:35.353Z,5.30
2018-12-11T03:20:03.246Z,5.50
2018-12-11T03:22:30.634Z,5.70
2018-12-11T03:24:58.026Z,5.15
2018-12-11T03:27:25.417Z,5.25
2018-12-11T03:29:52.824Z,5.70
2018-12-11T03:32:20.223Z,5.30
2018-12-11T03:34:47.706Z,5.97
2018-12-11T03:37:15.197Z,5.40
2018-12-11T03:39:42.642Z,5.50
2018-12-11T03:42:10.045Z,5.67
2018-12-11T03:44:37.446Z,5.87
2018-12-11T03:47:04.844Z,5.85
2018-12-11T03:49:32.249Z,5.47
2018-12-11T03:51:59.648Z,5.58
2018-12-11T03:54:27.056Z,5.20
2018-12-11T03:56:54.445Z,6.22
2018-12-11T03:59:21.835Z,5.80
2018-12-11T04:01:49.233Z,5.42
2018-12-11T04:04:16.633Z,5.70
2018-12-11T04:06:44.116Z,5.12
2018-12-11T04:09:11.512Z,5.65
2018-12-11T04:11:38.925Z,5.95
2018-12-11T04:14:06.320Z,6.33
2018-12-11T04:16:33.721Z,5.53
2018-12-11T04:19:01.122Z,5.72
2018-12-11T04:21:28.520Z,7.50
2018-12-11T04:23:55.968Z,10.20
2018-12-11T04:26:23.424Z,19.55
2018-12-11T04:28:50.847Z,14.28
2018-12-11T04:31:18.246Z,9.53
2018-12-11T04:33:45.780Z,10.85
2018-12-11T04:36:13.175Z,6.87
2018-12-11T04:38:40.567Z,7.03
2018-12-11T04:41:07.967Z,7.60
2018-12-11T04:43:35.361Z,6.72
2018-12-11T04:46:02.760Z,6.97
2018-12-11T04:48:30.212Z,6.10
2018-12-11T04:50:57.612Z,5.95
2018-12-11T04:53:25.004Z,6.47
2018-12-11T04:55:52.403Z,6.15
2018-12-11T04:58:19.806Z,6.08
2018-12-11T05:00:47.248Z,6.40
2018-12-11T05:03:14.625Z,6.50
2018-12-11T05:05:42.027Z,6.65
2018-12-11T05:08:14.946Z,6.42
2018-12-11T05:10:42.409Z,5.67
2018-12-11T05:13:09.853Z,6.35
2018-12-11T05:15:37.264Z,7.47
2018-12-11T05:18:04.713Z,6.62
2018-12-11T05:20:32.125Z,6.15
2018-12-11T05:22:59.521Z,6.40
2018-12-11T05:25:26.952Z,6.53
2018-12-11T05:27:54.333Z,7.22
2018-12-11T05:30:21.728Z,7.55
2018-12-11T05:32:49.147Z,7.35
2018-12-11T05:35:16.621Z,6.10
2018-12-11T05:37:44.073Z,6.85
2018-12-11T05:40:11.468Z,6.10
2018-12-11T05:42:38.882Z,7.05
2018-12-11T05:45:06.373Z,6.87
2018-12-11T05:47:33.772Z,6.75
2018-12-11T05:50:01.179Z,6.92
2018-12-11T05:52:28.576Z,7.00
2018-12-11T05:54:55.962Z,6.67
2018-12-11T05:57:23.364Z,6.85
2018-12-11T05:59:50.764Z,7.47
2018-12-11T06:02:18.228Z,6.67
2018-12-11T06:04:45.665Z,7.22
2018-12-11T06:07:13.072Z,7.12
2018-12-11T06:09:40.472Z,6.55
2018-12-11T06:12:07.912Z,6.83
2018-12-11T06:14:35.324Z,7.15
2018-12-11T06:17:02.716Z,7.53
2018-12-11T06:19:30.112Z,7.20
2018-12-11T06:21:57.509Z,8.38
2018-12-11T06:24:24.913Z,7.67
2018-12-11T06:26:52.317Z,8.43
2018-12-11T06:29:19.725Z,7.67
2018-12-11T06:31:47.187Z,8.53
2018-12-11T06:34:14.656Z,8.05
2018-12-11T06:36:42.046Z,8.15
2018-12-11T06:39:09.448Z,7.95
2018-12-11T06:41:36.846Z,7.33
2018-12-11T06:44:04.308Z,7.20
2018-12-11T06:46:31.726Z,8.75
2018-12-11T06:48:59.124Z,9.63
2018-12-11T06:51:26.534Z,9.13
2018-12-11T06:53:53.925Z,8.65
2018-12-11T06:56:21.382Z,7.90
2018-12-11T06:58:48.788Z,8.63
2018-12-11T07:01:16.269Z,8.83
2018-12-11T07:03:43.671Z,9.05
2018-12-11T07:06:11.062Z,8.75
2018-12-11T07:08:38.525Z,8.08
2018-12-11T07:11:05.917Z,8.10
2018-12-11T07:13:33.316Z,9.33
2018-12-11T07:16:00.835Z,9.10
2018-12-11T07:18:28.224Z,8.78
2018-12-11T07:20:55.657Z,8.55
2018-12-11T07:23:23.051Z,8.53
2018-12-11T07:25:50.437Z,7.50
2018-12-11T07:28:17.901Z,8.25
2018-12-11T07:30:45.294Z,7.53
2018-12-11T07:33:12.684Z,9.03
2018-12-11T07:35:40.081Z,7.90
2018-12-11T07:38:07.539Z,8.78
2018-12-11T07:40:34.989Z,7.58
2018-12-11T07:43:02.372Z,7.92
2018-12-11T07:45:29.836Z,7.58
2018-12-11T07:47:57.239Z,8.68
2018-12-11T07:50:24.641Z,8.83
2018-12-11T07:52:52.044Z,9.13
2018-12-11T07:55:19.509Z,8.80
2018-12-11T07:57:46.939Z,8.00
2018-12-11T08:00:14.426Z,7.95
2018-12-11T08:02:41.825Z,7.83
2018-12-11T08:05:09.239Z,8.65
2018-12-11T08:07:36.733Z,7.80
2018-12-11T08:10:05.561Z,7.80
2018-12-11T08:12:33.043Z,8.55
2018-12-11T08:15:00.432Z,7.37
2018-12-11T08:17:27.824Z,8.50
2018-12-11T08:19:55.253Z,7.50
2018-12-11T08:22:22.671Z,7.67
2018-12-11T08:24:50.065Z,7.75
2018-12-11T08:27:19.584Z,7.50
2018-12-11T08:29:47.015Z,8.05
2018-12-11T08:32:14.405Z,8.40
2018-12-11T08:34:41.803Z,8.90
2018-12-11T08:37:09.219Z,7.35
2018-12-11T08:39:36.647Z,7.45
2018-12-11T08:42:04.056Z,8.33
2018-12-11T08:44:31.492Z,7.85
2018-12-11T08:46:58.878Z,7.55
2018-12-11T08:49:26.267Z,8.03
2018-12-11T08:51:53.681Z,7.47
2018-12-11T08:54:21.088Z,8.05
2018-12-11T08:56:48.526Z,8.78
2018-12-11T08:59:15.941Z,7.62
2018-12-11T09:01:43.394Z,8.40
2018-12-11T09:04:10.834Z,7.75
2018-12-11T09:06:38.223Z,8.00
2018-12-11T09:09:06.124Z,7.58
2018-12-11T09:11:33.554Z,8.60
2018-12-11T09:14:00.948Z,8.38
2018-12-11T09:16:28.365Z,7.95
2018-12-11T09:18:55.763Z,8.70
2018-12-11T09:21:23.200Z,7.83
2018-12-11T09:23:50.622Z,8.15
2018-12-11T09:26:18.016Z,8.80
2018-12-11T09:28:45.432Z,8.83
2018-12-11T09:31:12.825Z,7.30
2018-12-11T09:33:40.235Z,8.23
2018-12-11T09:36:07.633Z,7.65
2018-12-11T09:38:35.382Z,8.28
2018-12-11T09:41:02.955Z,7.80
2018-12-11T09:43:30.413Z,9.45
2018-12-11T09:45:57.853Z,8.65
2018-12-11T09:48:25.277Z,7.87
2018-12-11T09:50:52.768Z,8.58
2018-12-11T09:53:20.192Z,8.08
2018-12-11T09:55:47.571Z,8.45
2018-12-11T09:58:14.977Z,8.23
2018-12-11T10:00:42.482Z,8.35
2018-12-11T10:03:10.132Z,8.80
2018-12-11T10:05:37.556Z,8.00
2018-12-11T10:08:05.007Z,8.75
2018-12-11T10:10:32.443Z,7.72
2018-12-11T10:12:59.843Z,7.55
2018-12-11T10:15:27.299Z,8.10
2018-12-11T10:17:54.690Z,8.58
2018-12-11T10:20:22.244Z,8.00
2018-12-11T10:22:49.661Z,8.20
2018-12-11T10:25:17.089Z,8.00
2018-12-11T10:27:44.509Z,7.85
2018-12-11T10:30:12.002Z,7.67
2018-12-11T10:32:39.399Z,7.45
2018-12-11T10:35:06.988Z,8.43
2018-12-11T10:37:34.384Z,7.45
2018-12-11T10:40:01.833Z,8.20
2018-12-11T10:42:29.253Z,8.15
2018-12-11T10:44:56.736Z,7.55
2018-12-11T10:47:24.158Z,8.35
2018-12-11T10:49:51.565Z,7.95
2018-12-11T10:52:18.956Z,7.42
2018-12-11T10:54:46.368Z,8.70
2018-12-11T10:57:13.761Z,8.23
2018-12-11T10:59:41.153Z,8.73
2018-12-11T11:02:14.095Z,8.20
2018-12-11T11:04:48.583Z,8.20
2018-12-11T11:07:15.972Z,8.05
2018-12-11T11:09:43.364Z,8.40
2018-12-11T11:12:10.808Z,7.37
2018-12-11T11:14:38.328Z,7.87
2018-12-11T11:17:05.733Z,7.92
2018-12-11T11:19:33.128Z,7.67
2018-12-11T11:22:00.522Z,7.62
2018-12-11T11:24:28.019Z,8.45
2018-12-11T11:26:55.405Z,9.03
2018-12-11T11:29:22.800Z,7.95
2018-12-11T11:31:50.200Z,8.25
2018-12-11T11:34:17.596Z,8.25
2018-12-11T11:36:45.002Z,8.58
2018-12-11T11:39:12.410Z,8.25
2018-12-11T11:41:41.310Z,8.50
2018-12-11T11:44:08.712Z,8.55
2018-12-11T11:46:36.124Z,8.20
2018-12-11T11:49:03.635Z,8.55
2018-12-11T11:51:31.116Z,8.18
2018-12-11T11:53:58.513Z,7.62
2018-12-11T11:56:25.910Z,7.85
2018-12-11T11:58:53.299Z,8.03
2018-12-11T12:01:20.753Z,8.25
2018-12-11T12:03:48.140Z,7.80
2018-12-11T12:06:15.549Z,7.58
2018-12-11T12:08:42.951Z,7.65
2018-12-11T12:11:10.341Z,7.00
2018-12-11T12:13:37.809Z,7.12
2018-12-11T12:16:05.252Z,7.60
2018-12-11T12:18:32.645Z,6.75
2018-12-11T12:21:00.054Z,6.97
2018-12-11T12:23:27.434Z,7.72
2018-12-11T12:25:55.188Z,6.70
2018-12-11T12:28:22.717Z,6.87
2018-12-11T12:30:50.826Z,6.87
2018-12-11T12:33:18.213Z,6.75
2018-12-11T12:35:45.604Z,6.78
2018-12-11T12:38:13.002Z,7.83
2018-12-11T12:40:40.456Z,6.80
2018-12-11T12:43:07.873Z,6.55
2018-12-11T12:45:35.269Z,6.87
2018-12-11T12:48:02.669Z,7.35
2018-12-11T12:50:30.118Z,7.42
2018-12-11T12:52:57.512Z,7.85
2018-12-11T12:55:24.905Z,7.25
2018-12-11T12:57:52.321Z,8.08
2018-12-11T13:00:19.709Z,7.20
2018-12-11T13:02:50.075Z,7.00
2018-12-11T13:05:16.776Z,7.65
2018-12-11T13:07:44.336Z,7.37
2018-12-11T13:10:11.778Z,6.92
2018-12-11T13:12:39.428Z,7.25
2018-12-11T13:15:07.423Z,8.23
2018-12-11T13:17:35.008Z,8.60
2018-12-11T13:20:02.458Z,8.20
2018-12-11T13:22:29.849Z,8.28
2018-12-11T13:24:57.240Z,8.50
2018-12-11T13:27:24.685Z,8.55
2018-12-11T13:29:52.088Z,9.50
2018-12-11T13:32:19.532Z,8.43
2018-12-11T13:34:46.937Z,9.03
2018-12-11T13:37:14.424Z,9.10
2018-12-11T13:39:41.824Z,8.48
2018-12-11T13:42:09.349Z,8.33
2018-12-11T13:44:36.720Z,7.83
2018-12-11T13:47:04.257Z,8.20
2018-12-11T13:49:31.652Z,7.40
2018-12-11T13:51:59.061Z,9.15
2018-12-11T13:54:26.458Z,9.00
2018-12-11T13:56:53.865Z,8.60
2018-12-11T13:59:21.255Z,7.90
2018-12-11T14:01:48.648Z,8.00
2018-12-11T14:04:16.042Z,7.45
2018-12-11T14:06:43.436Z,7.22
2018-12-11T14:09:16.616Z,7.72
2018-12-11T14:11:43.992Z,7.62
2018-12-11T14:14:11.452Z,8.30
2018-12-11T14:16:38.888Z,7.42
2018-12-11T14:19:06.364Z,7.03
2018-12-11T14:21:33.791Z,7.70
2018-12-11T14:24:01.180Z,8.38
2018-12-11T14:26:28.628Z,8.30
2018-12-11T14:28:56.120Z,7.92
2018-12-11T14:31:23.527Z,8.45
2018-12-11T14:33:50.918Z,8.73
2018-12-11T14:36:18.336Z,7.65
2018-12-11T14:38:45.726Z,7.83
2018-12-11T14:41:13.120Z,7.60
2018-12-11T14:43:40.512Z,8.45
2018-12-11T14:46:07.900Z,8.88
2018-12-11T14:48:35.292Z,9.08
2018-12-11T14:51:02.685Z,8.68
2018-12-11T14:53:30.180Z,8.20
2018-12-11T14:55:57.645Z,9.03
2018-12-11T14:58:25.041Z,8.28
2018-12-11T15:00:52.441Z,8.23
2018-12-11T15:03:19.890Z,9.18
2018-12-11T15:05:47.294Z,8.73
2018-12-11T15:08:14.700Z,7.53
2018-12-11T15:10:42.249Z,7.85
2018-12-11T15:13:09.648Z,8.08
2018-12-11T15:15:37.139Z,8.48
2018-12-11T15:18:04.528Z,8.25
2018-12-11T15:20:31.924Z,6.80
2018-12-11T15:22:59.317Z,7.83
2018-12-11T15:25:26.728Z,7.50
2018-12-11T15:27:54.312Z,8.13
2018-12-11T15:30:21.703Z,7.33
2018-12-11T15:32:49.109Z,7.30
2018-12-11T15:35:16.510Z,8.05
2018-12-11T15:37:43.919Z,8.43
2018-12-11T15:40:11.318Z,7.67
2018-12-11T15:42:38.790Z,8.58
2018-12-11T15:45:06.482Z,7.80
2018-12-11T15:47:33.901Z,8.15
2018-12-11T15:50:01.314Z,9.08
2018-12-11T15:52:28.857Z,9.03
2018-12-11T15:54:56.254Z,11.30
2018-12-11T15:57:23.673Z,9.33
2018-12-11T15:59:51.081Z,9.03
2018-12-11T16:02:18.485Z,9.50
2018-12-11T16:07:26.629Z,10.53
2018-12-11T16:09:54.053Z,10.50
2018-12-11T16:12:21.452Z,10.75
2018-12-11T16:14:48.852Z,9.45
2018-12-11T16:17:16.301Z,10.18
2018-12-11T16:19:43.709Z,9.73
2018-12-11T16:22:12.010Z,11.65
2018-12-11T16:24:39.420Z,12.10
2018-12-11T16:27:06.881Z,10.30
2018-12-11T16:29:34.450Z,10.93
2018-12-11T16:32:02.792Z,11.95
2018-12-11T16:34:30.204Z,11.10
2018-12-11T16:36:57.609Z,12.28
2018-12-11T16:39:25.033Z,10.05
2018-12-11T16:41:52.437Z,10.60
2018-12-11T16:44:19.839Z,10.90
2018-12-11T16:46:47.286Z,11.93
2018-12-11T16:49:14.789Z,10.75
2018-12-11T16:51:42.212Z,9.90
2018-12-11T16:54:10.621Z,9.85
2018-12-11T16:56:38.071Z,11.25
2018-12-11T16:59:05.558Z,11.28
2018-12-11T17:01:32.945Z,10.50
2018-12-11T17:04:00.382Z,10.50
2018-12-11T17:06:27.780Z,11.45
2018-12-11T17:08:55.233Z,10.90
2018-12-11T17:11:22.652Z,11.10
2018-12-11T17:13:50.053Z,11.30
2018-12-11T17:16:17.465Z,9.63
2018-12-11T17:18:44.864Z,9.95
2018-12-11T17:21:12.284Z,11.00
2018-12-11T17:23:39.689Z,9.83
2018-12-11T17:26:07.101Z,10.58
2018-12-11T17:28:34.566Z,10.50
2018-12-11T17:31:02.034Z,12.35
2018-12-11T17:33:29.482Z,11.90
2018-12-11T17:35:56.928Z,10.75
2018-12-11T17:38:24.337Z,11.15
2018-12-11T17:40:51.760Z,13.48
2018-12-11T17:43:19.161Z,13.10
2018-12-11T17:45:46.577Z,12.28
2018-12-11T17:48:14.347Z,11.60
2018-12-11T17:50:41.980Z,12.90
2018-12-11T17:53:09.524Z,11.78
2018-12-11T17:55:40.713Z,12.33
2018-12-11T17:58:08.110Z,11.97
2018-12-11T18:00:36.721Z,12.28
2018-12-11T18:03:04.226Z,11.93
2018-12-11T18:05:31.641Z,12.50
2018-12-11T18:07:59.041Z,12.35
2018-12-11T18:10:26.578Z,12.00
2018-12-11T18:12:54.071Z,13.98
2018-12-11T18:15:21.562Z,13.90
2018-12-11T18:17:49.025Z,13.22
2018-12-11T18:20:16.431Z,12.45
2018-12-11T18:22:43.849Z,13.32
2018-12-11T18:25:11.245Z,13.72
2018-12-11T18:27:38.648Z,12.60
2018-12-11T18:30:06.359Z,11.57
2018-12-11T18:32:33.753Z,12.37
2018-12-11T18:39:50.811Z,11.30
2018-12-11T18:42:18.269Z,12.90
2018-12-11T18:44:45.704Z,11.63
2018-12-11T18:47:13.199Z,12.10
2018-12-11T18:49:40.604Z,12.20
2018-12-11T18:52:08.103Z,11.95
2018-12-11T18:54:35.509Z,11.10
2018-12-11T18:57:02.907Z,12.20
2018-12-11T18:59:30.317Z,12.00
2018-12-11T19:01:57.708Z,13.03
2018-12-11T19:04:25.111Z,11.95
2018-12-11T19:06:52.521Z,12.98
2018-12-11T19:09:19.925Z,12.50
2018-12-11T19:11:47.316Z,14.30
2018-12-11T19:14:14.727Z,13.70
2018-12-11T19:16:42.123Z,13.00
2018-12-11T19:19:09.532Z,14.05
2018-12-11T19:21:36.976Z,15.05
2018-12-11T19:24:05.069Z,14.85
2018-12-11T19:26:32.484Z,14.87
2018-12-11T19:28:59.884Z,17.10
2018-12-11T19:31:27.297Z,16.23
2018-12-11T19:33:54.689Z,15.40
2018-12-11T19:36:22.088Z,16.80
2018-12-11T19:38:49.496Z,15.88
2018-12-11T19:41:16.896Z,18.02
2018-12-11T19:43:44.324Z,17.40
2018-12-11T19:46:11.726Z,16.87
2018-12-11T19:48:39.120Z,16.82
2018-12-11T19:51:06.534Z,16.90
2018-12-11T19:53:33.969Z,19.75
2018-12-11T19:56:01.620Z,18.75
2018-12-11T19:58:29.035Z,18.12
2018-12-11T20:00:56.441Z,19.37
2018-12-11T20:03:23.837Z,19.45
2018-12-11T20:05:51.244Z,16.93
2018-12-11T20:08:18.640Z,15.75
2018-12-11T20:10:48.005Z,17.10
2018-12-11T20:13:15.407Z,16.82
2018-12-11T20:15:43.121Z,17.60
2018-12-11T20:18:13.024Z,17.60
2018-12-11T20:20:39.957Z,16.48
2018-12-11T20:23:07.432Z,16.70
2018-12-11T20:25:40.466Z,16.52
2018-12-11T20:28:07.997Z,16.50
2018-12-11T20:30:35.399Z,17.32
2018-12-11T20:33:02.893Z,18.25
2018-12-11T20:35:30.387Z,18.48
2018-12-11T20:37:57.843Z,17.73
2018-12-11T20:40:25.373Z,19.12
2018-12-11T20:42:52.792Z,18.20
2018-12-11T20:45:20.206Z,18.00
2018-12-11T20:47:47.643Z,17.25
2018-12-11T20:50:15.048Z,18.27
2018-12-11T20:52:42.451Z,17.48
2018-12-11T20:55:09.848Z,17.77
2018-12-11T20:57:37.257Z,18.30
2018-12-11T21:00:07.765Z,18.80
2018-12-11T21:02:35.172Z,19.80
2018-12-11T21:05:02.613Z,20.48
2018-12-11T21:07:30.029Z,19.67
2018-12-11T21:09:57.433Z,20.65
2018-12-11T21:12:24.845Z,19.95
2018-12-11T21:14:52.262Z,18.20
2018-12-11T21:17:19.656Z,18.75
2018-12-11T21:19:47.065Z,18.25
2018-12-11T21:22:14.456Z,18.23
2018-12-11T21:24:43.365Z,17.40
2018-12-11T21:27:10.797Z,17.95
2018-12-11T21:29:38.193Z,18.70
2018-12-11T21:32:05.598Z,18.12
2018-12-11T21:34:32.996Z,19.55
2018-12-11T21:37:00.405Z,18.00
2018-12-11T21:39:28.425Z,19.10
2018-12-11T21:41:55.821Z,18.02
2018-12-11T21:44:23.220Z,17.85
2018-12-11T21:46:50.620Z,19.02
2018-12-11T21:49:18.960Z,18.27
2018-12-11T21:51:46.361Z,17.62
2018-12-11T21:54:13.752Z,17.87
2018-12-11T21:56:41.164Z,17.85
2018-12-11T21:59:08.557Z,16.90
2018-12-11T22:01:35.964Z,18.67
2018-12-11T22:04:03.421Z,16.85
2018-12-11T22:06:30.823Z,17.32
2018-12-11T22:08:58.289Z,17.45
2018-12-11T22:11:25.676Z,18.02
2018-12-11T22:13:53.072Z,19.62
2018-12-11T22:16:21.404Z,17.27
2018-12-11T22:18:48.795Z,17.92
2018-12-11T22:21:16.204Z,18.73
2018-12-11T22:23:43.597Z,19.05
2018-12-11T22:26:11.000Z,17.70
2018-12-11T22:28:38.404Z,18.17
2018-12-11T22:31:05.842Z,17.35
2018-12-11T22:33:33.249Z,17.40
2018-12-11T22:36:00.641Z,16.30
2018-12-11T22:38:28.102Z,16.57
2018-12-11T22:40:55.493Z,17.67
2018-12-11T22:43:22.896Z,17.30
2018-12-11T22:45:50.294Z,16.40
2018-12-11T22:48:17.706Z,14.70
2018-12-11T22:50:45.102Z,15.75
2018-12-11T22:53:12.496Z,16.80
2018-12-11T22:55:39.904Z,15.90
2018-12-11T22:58:07.300Z,13.38
2018-12-11T23:00:34.856Z,13.35
2018-12-11T23:03:02.251Z,12.85
2018-12-11T23:05:29.745Z,12.90
2018-12-11T23:07:57.192Z,12.55
2018-12-11T23:10:24.666Z,12.85
2018-12-11T23:12:52.094Z,11.53
2018-12-11T23:15:19.488Z,12.78
2018-12-11T23:17:46.900Z,11.85
2018-12-11T23:20:14.373Z,12.50
2018-12-11T23:22:41.765Z,12.93
2018-12-11T23:25:09.348Z,13.00
2018-12-11T23:27:36.748Z,12.60
2018-12-11T23:30:04.744Z,15.18
2018-12-11T23:32:32.160Z,14.05
2018-12-11T23:34:59.716Z,12.65
2018-12-11T23:37:27.220Z,14.40
2018-12-11T23:39:54.621Z,13.35
2018-12-11T23:42:22.017Z,14.00
2018-12-11T23:44:49.424Z,13.05
2018-12-11T23:47:16.820Z,13.38
2018-12-11T23:49:44.233Z,14.40
2018-12-11T23:52:11.631Z,14.47
2018-12-11T23:54:39.024Z,14.33
2018-12-11T23:57:06.432Z,14.28
2018-12-11T23:59:33.926Z,14.40
